Time;durP1;ratioP1;P1;durP2;ratioP2;P2;SDS_P1;SDS_P2;PMS_P1;PMS_P2;Temp;Humidity;BMP_temperature;BMP_pressure;BME280_temperature;BME280_humidity;BME280_pressure;Samples;Min_cycle;Max_cycle;Signal;HPM_P1;HPM_P2
2023/01/18 00:01:01;;;;;;;7.72;2.55;;;-0.50;99.90;;;;;;5081993;28;20108;-57
2023/01/18 00:03:27;;;;;;;6.28;2.13;;;-0.40;99.90;;;;;;5080905;28;20032;-57
2023/01/18 00:05:53;;;;;;;5.65;1.90;;;-0.40;99.90;;;;;;5083002;28;20487;-58
2023/01/18 00:08:19;;;;;;;5.75;2.13;;;-0.40;99.90;;;;;;5080320;28;20045;-58
2023/01/18 00:10:45;;;;;;;9.80;2.58;;;-0.40;99.90;;;;;;5082714;28;20064;-58
2023/01/18 00:13:11;;;;;;;6.60;2.15;;;-0.30;99.90;;;;;;5080084;28;20094;-58
2023/01/18 00:15:38;;;;;;;5.05;1.80;;;-0.30;99.90;;;;;;5082697;28;20092;-58
2023/01/18 00:18:04;;;;;;;6.75;2.08;;;-0.20;99.90;;;;;;5063650;28;20044;-57
2023/01/18 00:20:31;;;;;;;6.43;1.80;;;-0.30;99.90;;;;;;5061725;28;20399;-57
2023/01/18 00:22:59;;;;;;;5.35;2.08;;;-0.40;99.90;;;;;;5082681;28;20054;-58
2023/01/18 00:25:25;;;;;;;5.32;1.92;;;-0.40;99.90;;;;;;5080211;28;20048;-58
2023/01/18 00:27:52;;;;;;;6.90;2.00;;;-0.30;99.90;;;;;;5082408;28;20040;-58
2023/01/18 00:30:22;;;;;;;6.63;2.13;;;-0.50;99.90;;;;;;5061608;28;20040;-58
2023/01/18 00:32:48;;;;;;;5.57;2.13;;;-0.50;99.90;;;;;;5082186;28;20048;-58
2023/01/18 00:35:14;;;;;;;5.70;2.15;;;-0.40;99.90;;;;;;5081503;28;20048;-57
2023/01/18 00:37:41;;;;;;;6.30;2.13;;;-0.40;99.90;;;;;;5080106;28;20621;-55
2023/01/18 00:40:07;;;;;;;6.45;2.30;;;-0.50;99.90;;;;;;5082631;28;20079;-57
2023/01/18 00:45:18;;;;;;;7.80;2.50;;;-0.60;99.90;;;;;;5082047;28;20063;-58
2023/01/18 00:47:44;;;;;;;5.07;1.63;;;-0.50;99.90;;;;;;5079923;28;20041;-57
2023/01/18 00:50:10;;;;;;;5.45;2.63;;;-0.70;99.90;;;;;;5063359;28;20051;-57
2023/01/18 00:52:36;;;;;;;6.32;2.13;;;-0.70;99.90;;;;;;5063620;28;20056;-57
2023/01/18 00:55:02;;;;;;;4.68;1.85;;;-0.50;99.90;;;;;;5093383;28;20044;-57
2023/01/18 00:57:28;;;;;;;5.43;2.22;;;-0.60;99.90;;;;;;5102003;28;20091;-59
2023/01/18 00:59:54;;;;;;;5.72;2.38;;;-0.60;99.90;;;;;;5099400;28;20071;-58
2023/01/18 01:02:19;;;;;;;6.40;2.22;;;-0.60;99.90;;;;;;5101845;28;20064;-57
2023/01/18 01:07:29;;;;;;;9.25;2.67;;;-0.70;99.90;;;;;;5100574;28;20139;-58
2023/01/18 01:09:56;;;;;;;7.22;2.10;;;-0.60;99.90;;;;;;5102031;28;20103;-58
2023/01/18 01:26:09;;;;;;;5.25;2.30;;;-0.50;99.90;;;;;;5099535;28;20119;-57
2023/01/18 01:28:40;;;;;;;6.10;2.05;;;-0.70;99.90;;;;;;5082466;28;20048;-58
2023/01/18 01:31:08;;;;;;;11.10;2.70;;;-0.50;99.90;;;;;;5083217;28;20044;-58
2023/01/18 01:33:35;;;;;;;5.45;2.47;;;-0.60;99.90;;;;;;5098449;28;20089;-58
2023/01/18 01:36:05;;;;;;;6.35;2.53;;;-0.60;99.90;;;;;;5101811;28;20433;-58
2023/01/18 01:38:31;;;;;;;5.93;2.33;;;-0.50;99.90;;;;;;5098702;28;20047;-60
2023/01/18 01:41:03;;;;;;;6.60;2.00;;;-0.70;99.90;;;;;;5101182;28;20048;-58
2023/01/18 01:43:50;;;;;;;6.20;2.17;;;-0.50;99.90;;;;;;5081398;28;20060;-58
2023/01/18 01:46:43;;;;;;;6.43;2.70;;;-0.60;99.90;;;;;;5099357;28;20044;-59
2023/01/18 01:49:22;;;;;;;7.38;2.40;;;-0.80;99.90;;;;;;5101205;28;20047;-59
2023/01/18 01:51:53;;;;;;;5.97;2.10;;;-0.70;99.90;;;;;;5098888;28;20043;-59
2023/01/18 01:54:26;;;;;;;5.70;2.28;;;-0.80;99.90;;;;;;5073558;28;20052;-59
2023/01/18 01:56:59;;;;;;;5.90;2.42;;;-0.60;99.90;;;;;;5080856;28;20048;-58
2023/01/18 01:59:24;;;;;;;5.85;2.70;;;-0.60;99.90;;;;;;5077471;28;20091;-58
2023/01/18 02:01:50;;;;;;;5.88;2.20;;;-0.60;99.90;;;;;;5081054;28;20056;-58
2023/01/18 02:04:16;;;;;;;6.22;2.50;;;-0.70;99.90;;;;;;5077938;28;20055;-58
2023/01/18 02:06:42;;;;;;;5.13;2.30;;;-0.70;99.90;;;;;;5062560;28;20052;-58
2023/01/18 02:09:14;;;;;;;5.53;1.90;;;-0.60;99.90;;;;;;5078394;28;20067;-57
2023/01/18 02:11:40;;;;;;;;;;;-0.60;99.90;;;;;;5061935;28;20040;-58
2023/01/18 02:14:10;;;;;;;7.18;2.65;;;-0.60;99.90;;;;;;5080346;28;19924;-58
2023/01/18 02:17:18;;;;;;;5.88;2.28;;;-0.60;99.90;;;;;;5077639;28;20029;-58
2023/01/18 02:19:58;;;;;;;5.80;2.63;;;-0.70;99.90;;;;;;5032195;28;20153;-58
2023/01/18 02:22:29;;;;;;;9.15;2.55;;;-0.70;99.90;;;;;;5079993;28;20285;-57
2023/01/18 02:25:27;;;;;;;6.57;2.37;;;-0.70;99.90;;;;;;5077857;28;20508;-58
2023/01/18 02:28:11;;;;;;;9.48;2.30;;;-0.60;99.90;;;;;;5062309;28;20044;-58
2023/01/18 02:30:48;;;;;;;7.90;2.20;;;-0.40;99.90;;;;;;5078776;28;20078;-57
2023/01/18 02:33:26;;;;;;;5.25;2.05;;;-0.50;99.90;;;;;;5078483;28;20079;-57
2023/01/18 02:35:56;;;;;;;5.15;2.25;;;-0.60;99.90;;;;;;5080342;28;20060;-57
2023/01/18 02:38:43;;;;;;;5.03;2.15;;;-0.60;99.90;;;;;;5077623;28;20056;-57
2023/01/18 02:46:29;;;;;;;5.55;2.22;;;-0.50;99.90;;;;;;5080413;28;20048;-58
2023/01/18 02:47:03;;;;;;;6.05;1.98;;;-0.60;99.90;;;;;;5077657;28;20106;-57
2023/01/18 02:49:31;;;;;;;7.90;2.15;;;-0.40;99.90;;;;;;5062145;28;20045;-57
2023/01/18 02:52:07;;;;;;;5.85;2.00;;;-0.40;99.90;;;;;;5078123;28;20060;-56
2023/01/18 02:54:38;;;;;;;7.20;2.58;;;-0.70;99.90;;;;;;5070741;28;20054;-57
2023/01/18 02:57:11;;;;;;;4.53;2.03;;;-0.60;99.90;;;;;;5100645;28;20074;-57
2023/01/18 02:59:43;;;;;;;6.65;2.38;;;-0.60;99.90;;;;;;5097654;28;20068;-58
2023/01/18 03:02:13;;;;;;;4.05;2.08;;;-0.50;99.90;;;;;;5100092;28;20036;-58
2023/01/18 03:04:53;;;;;;;5.57;2.17;;;-0.50;99.90;;;;;;5097788;28;20051;-55
2023/01/18 03:07:38;;;;;;;7.00;2.38;;;-0.80;99.90;;;;;;5099011;28;20040;-58
2023/01/18 03:10:08;;;;;;;6.60;2.13;;;-0.60;99.90;;;;;;5048539;28;20119;-58
2023/01/18 03:12:45;;;;;;;7.93;2.80;;;-0.60;99.90;;;;;;5097228;28;20036;-57
2023/01/18 03:15:42;;;;;;;10.30;2.65;;;-0.60;99.90;;;;;;5082025;28;20044;-57
2023/01/18 03:18:59;;;;;;;6.72;1.92;;;-0.90;99.90;;;;;;5099911;28;20048;-56
2023/01/18 03:21:40;;;;;;;6.78;2.30;;;-0.80;99.90;;;;;;5064272;28;20051;-57
2023/01/18 03:24:07;;;;;;;6.40;2.08;;;-0.80;99.90;;;;;;5100045;28;20131;-58
2023/01/18 03:26:38;;;;;;;4.75;2.35;;;-0.70;99.90;;;;;;5081243;28;20098;-57
2023/01/18 03:35:02;;;;;;;6.85;2.53;;;-0.80;99.90;;;;;;5098037;28;20063;-58
2023/01/18 03:37:36;;;;;;;9.15;3.33;;;-0.70;99.90;;;;;;5080048;28;20154;-58
2023/01/18 03:40:09;;;;;;;6.55;2.67;;;-0.70;99.90;;;;;;5100105;28;20036;-58
2023/01/18 03:42:52;;;;;;;4.97;2.30;;;-0.70;99.90;;;;;;5096690;28;20554;-58
2023/01/18 03:45:37;;;;;;;7.75;2.63;;;-0.90;99.90;;;;;;5100173;28;20114;-57
2023/01/18 03:48:05;;;;;;;7.35;3.40;;;-0.90;99.90;;;;;;5099041;28;20055;-56
2023/01/18 03:51:09;;;;;;;5.85;2.80;;;-0.80;99.90;;;;;;5097571;28;20066;-58
2023/01/18 03:53:49;;;;;;;7.88;3.00;;;-0.90;99.90;;;;;;5076453;28;20074;-58
2023/01/18 03:56:27;;;;;;;7.03;3.10;;;-0.80;99.90;;;;;;5079203;28;20081;-58
2023/01/18 03:58:57;;;;;;;7.78;3.08;;;-0.70;99.90;;;;;;5081805;28;20051;-57
2023/01/18 04:01:24;;;;;;;7.88;2.60;;;-0.90;99.90;;;;;;5083027;28;20055;-58
2023/01/18 04:03:50;;;;;;;6.82;3.08;;;-0.90;99.90;;;;;;5062173;28;20047;-58
2023/01/18 04:06:16;;;;;;;7.82;2.95;;;-0.90;99.90;;;;;;5082845;28;20080;-58
2023/01/18 04:08:42;;;;;;;6.45;2.95;;;-0.90;99.90;;;;;;5079986;28;20041;-58
2023/01/18 04:11:07;;;;;;;6.82;2.70;;;-0.90;99.90;;;;;;5082623;28;20059;-58
2023/01/18 04:13:33;;;;;;;9.48;3.75;;;-0.90;99.90;;;;;;5081494;28;20104;-57
2023/01/18 04:15:58;;;;;;;7.78;2.88;;;-1.00;99.90;;;;;;5063073;28;20052;-57
2023/01/18 04:18:24;;;;;;;8.35;3.28;;;-1.00;99.90;;;;;;5064966;28;20044;-55
2023/01/18 04:20:55;;;;;;;7.57;2.90;;;-1.00;99.90;;;;;;5080063;28;20075;-58
2023/01/18 04:23:21;;;;;;;6.05;3.08;;;-0.90;99.90;;;;;;5064387;28;20116;-57
2023/01/18 04:25:48;;;;;;;6.05;2.63;;;-1.00;99.90;;;;;;5080093;28;20128;-58
2023/01/18 04:28:15;;;;;;;8.07;3.22;;;-0.80;99.90;;;;;;5082710;28;20044;-58
2023/01/18 04:30:41;;;;;;;6.90;3.63;;;-1.10;99.90;;;;;;5081001;28;20048;-57
2023/01/18 04:33:06;;;;;;;7.22;3.13;;;-1.00;99.90;;;;;;5063005;28;20546;-58
2023/01/18 04:35:32;;;;;;;7.03;3.38;;;-1.00;99.90;;;;;;5082225;28;20053;-58
2023/01/18 04:37:58;;;;;;;5.93;2.90;;;-0.90;99.90;;;;;;5079777;28;20048;-57
2023/01/18 04:40:24;;;;;;;8.85;3.35;;;-0.90;99.90;;;;;;5082370;28;20507;-58
2023/01/18 04:42:52;;;;;;;7.78;3.10;;;-1.00;99.90;;;;;;5079468;28;20044;-58
2023/01/18 04:45:18;;;;;;;9.35;3.53;;;-1.00;99.90;;;;;;5082339;28;20044;-58
2023/01/18 04:47:45;;;;;;;7.63;3.15;;;-1.10;99.90;;;;;;5080855;28;20062;-58
2023/01/18 04:50:11;;;;;;;9.65;3.22;;;-1.00;99.90;;;;;;5084674;28;20044;-57
2023/01/18 04:52:36;;;;;;;8.07;3.05;;;-1.10;99.90;;;;;;5102397;28;20046;-56
2023/01/18 04:55:02;;;;;;;7.18;3.35;;;-1.00;99.90;;;;;;5099640;28;20039;-57
2023/01/18 04:57:28;;;;;;;7.50;3.33;;;-1.00;99.90;;;;;;5102246;28;20734;-58
2023/01/18 04:59:53;;;;;;;8.02;3.55;;;-0.90;99.90;;;;;;5099347;28;20036;-57
2023/01/18 05:02:19;;;;;;;7.47;3.25;;;-1.10;99.90;;;;;;5102233;28;20090;-57
2023/01/18 05:04:45;;;;;;;11.75;3.80;;;-0.90;99.90;;;;;;5100412;28;20223;-57
2023/01/18 05:07:11;;;;;;;7.55;3.58;;;-1.10;99.90;;;;;;5101078;28;20059;-57
2023/01/18 05:09:36;;;;;;;8.60;3.25;;;-1.00;99.90;;;;;;5101591;28;20434;-57
2023/01/18 05:12:02;;;;;;;7.65;3.33;;;-1.10;99.90;;;;;;5099280;28;20134;-58
2023/01/18 05:14:28;;;;;;;8.95;3.60;;;-1.10;99.90;;;;;;5101893;28;20073;-57
2023/01/18 05:16:53;;;;;;;7.20;3.63;;;-0.90;99.90;;;;;;5098958;28;20074;-58
2023/01/18 05:19:19;;;;;;;8.98;3.85;;;-1.00;99.90;;;;;;5101736;28;20054;-58
2023/01/18 05:21:45;;;;;;;11.95;4.00;;;-1.10;99.90;;;;;;5099631;28;20032;-58
2023/01/18 05:24:11;;;;;;;10.15;4.20;;;-1.10;99.90;;;;;;5066382;28;20094;-58
2023/01/18 05:26:36;;;;;;;9.02;3.75;;;-1.10;99.90;;;;;;5100944;28;20043;-57
2023/01/18 05:29:02;;;;;;;8.30;3.58;;;-0.90;99.90;;;;;;5099234;28;20134;-58
2023/01/18 05:31:28;;;;;;;8.02;3.88;;;-1.00;99.90;;;;;;5101939;28;20039;-58
2023/01/18 05:33:56;;;;;;;9.38;4.63;;;-1.00;99.90;;;;;;5098616;28;20400;-57
2023/01/18 05:36:22;;;;;;;11.85;3.83;;;-1.00;99.90;;;;;;5101205;28;20512;-58
2023/01/18 05:38:47;;;;;;;9.35;4.15;;;-1.10;99.90;;;;;;5098993;28;20081;-58
2023/01/18 05:41:13;;;;;;;9.15;3.58;;;-1.20;99.90;;;;;;5101112;28;20047;-57
2023/01/18 05:43:39;;;;;;;8.50;4.13;;;-1.10;99.90;;;;;;5100245;28;20067;-57
2023/01/18 05:46:05;;;;;;;8.82;4.32;;;-1.00;99.90;;;;;;5099147;28;20062;-57
2023/01/18 05:48:30;;;;;;;8.55;4.60;;;-1.10;99.90;;;;;;5101574;28;20069;-58
2023/01/18 05:50:56;;;;;;;7.35;4.03;;;-1.10;99.90;;;;;;5098492;28;20530;-58
2023/01/18 05:53:22;;;;;;;10.70;5.10;;;-1.10;99.90;;;;;;5100600;28;20393;-56
2023/01/18 05:55:56;;;;;;;10.50;4.55;;;-1.00;99.90;;;;;;5078040;28;20408;-57
2023/01/18 05:58:22;;;;;;;9.27;4.70;;;-1.10;99.90;;;;;;5080375;28;20090;-58
2023/01/18 06:00:48;;;;;;;8.43;4.40;;;-1.00;99.90;;;;;;5080427;28;20438;-57
2023/01/18 06:03:14;;;;;;;10.10;4.65;;;-1.20;99.90;;;;;;5078984;28;20100;-57
2023/01/18 06:05:39;;;;;;;9.70;5.30;;;-1.10;99.90;;;;;;5081215;28;20037;-58
2023/01/18 06:08:05;;;;;;;10.15;5.32;;;-1.10;99.90;;;;;;5077788;28;20082;-58
2023/01/18 06:10:30;;;;;;;10.23;4.80;;;-1.20;99.90;;;;;;5080841;28;20102;-57
2023/01/18 06:12:56;;;;;;;10.52;4.65;;;-1.00;99.90;;;;;;5077957;28;20062;-57
2023/01/18 06:15:22;;;;;;;11.20;4.70;;;-1.10;99.90;;;;;;5076445;28;20064;-58
2023/01/18 06:17:47;;;;;;;10.25;5.47;;;-1.20;99.90;;;;;;5076105;28;20048;-56
2023/01/18 06:20:13;;;;;;;12.35;5.72;;;-1.20;99.90;;;;;;5079552;28;20163;-58
2023/01/18 06:22:39;;;;;;;11.15;5.20;;;-1.10;99.90;;;;;;5097846;28;20039;-58
2023/01/18 06:25:07;;;;;;;11.85;5.18;;;-1.00;99.90;;;;;;5094599;28;20040;-58
2023/01/18 06:27:32;;;;;;;9.35;4.88;;;-1.00;99.90;;;;;;5097684;28;20048;-58
2023/01/18 06:29:58;;;;;;;10.60;4.95;;;-1.10;99.90;;;;;;5076537;28;20082;-58
2023/01/18 06:32:24;;;;;;;13.63;6.45;;;-1.10;99.90;;;;;;5097344;28;20047;-58
2023/01/18 06:34:49;;;;;;;10.05;5.35;;;-1.10;99.90;;;;;;5095311;28;20486;-58
2023/01/18 06:37:15;;;;;;;12.60;5.45;;;-1.00;99.90;;;;;;5094959;28;20123;-58
2023/01/18 06:39:41;;;;;;;9.45;5.30;;;-1.10;99.90;;;;;;5096979;28;20066;-58
2023/01/18 06:42:06;;;;;;;11.48;5.32;;;-1.10;99.90;;;;;;5093876;28;20430;-58
2023/01/18 06:44:32;;;;;;;12.93;6.05;;;-0.90;99.90;;;;;;5097100;28;20036;-57
2023/01/18 06:46:57;;;;;;;12.05;5.45;;;-1.00;99.90;;;;;;5075756;28;20501;-56
2023/01/18 06:49:23;;;;;;;10.50;5.72;;;-1.00;99.90;;;;;;5096342;28;20271;-57
2023/01/18 06:51:49;;;;;;;10.88;4.93;;;-1.20;99.90;;;;;;5076509;28;20048;-57
2023/01/18 06:54:15;;;;;;;11.32;5.82;;;-1.20;99.90;;;;;;5087581;28;20044;-57
2023/01/18 06:56:41;;;;;;;16.52;6.18;;;-1.20;99.90;;;;;;5058588;28;20055;-58
2023/01/18 06:59:07;;;;;;;10.80;5.93;;;-1.20;99.90;;;;;;5073491;28;20040;-58
2023/01/18 07:01:33;;;;;;;11.85;4.97;;;-1.20;99.90;;;;;;5076056;28;20063;-58
2023/01/18 07:03:59;;;;;;;12.27;6.03;;;-1.10;99.90;;;;;;5073502;28;20045;-57
2023/01/18 07:06:25;;;;;;;9.55;5.72;;;-1.20;99.90;;;;;;5076238;28;20561;-58
2023/01/18 07:08:51;;;;;;;9.97;5.23;;;-1.00;99.90;;;;;;5073746;28;20127;-56
2023/01/18 07:11:17;;;;;;;10.98;5.43;;;-1.00;99.90;;;;;;5075673;28;20495;-58
2023/01/18 07:13:43;;;;;;;10.77;5.45;;;-1.10;99.90;;;;;;5075112;28;20096;-55
2023/01/18 07:16:16;;;;;;;12.43;5.38;;;-1.00;99.90;;;;;;5055472;28;20079;-57
2023/01/18 07:18:47;;;;;;;10.50;5.65;;;-0.90;99.90;;;;;;5076274;28;20052;-58
2023/01/18 07:21:14;;;;;;;12.93;5.70;;;-1.00;99.90;;;;;;5073001;28;20494;-58
2023/01/18 07:23:41;;;;;;;13.30;5.95;;;-1.10;99.90;;;;;;5075590;28;20037;-57
2023/01/18 07:26:11;;;;;;;10.50;5.45;;;-0.90;99.90;;;;;;5046456;28;20133;-58
2023/01/18 07:28:37;;;;;;;12.73;5.93;;;-1.10;99.90;;;;;;5089808;28;20052;-57
2023/01/18 07:31:06;;;;;;;10.57;5.78;;;-0.90;99.90;;;;;;5099283;28;20480;-57
2023/01/18 07:33:33;;;;;;;11.27;5.93;;;-1.10;99.90;;;;;;5096899;28;20511;-58
2023/01/18 07:35:59;;;;;;;9.95;5.22;;;-0.90;99.90;;;;;;5081425;28;20079;-57
2023/01/18 07:38:25;;;;;;;12.40;6.07;;;-0.80;99.90;;;;;;5096585;28;20048;-57
2023/01/18 07:40:56;;;;;;;17.20;5.30;;;-0.90;99.90;;;;;;5100040;28;20051;-57
2023/01/18 07:43:23;;;;;;;10.23;4.80;;;-1.00;99.90;;;;;;5080534;28;20051;-58
2023/01/18 07:45:53;;;;;;;10.30;4.97;;;-1.00;99.90;;;;;;5098719;28;20069;-58
2023/01/18 07:48:19;;;;;;;9.50;5.05;;;-1.00;99.90;;;;;;5099841;28;20834;-58
2023/01/18 07:50:58;;;;;;;9.55;4.70;;;-0.80;99.90;;;;;;5078104;28;20074;-57
2023/01/18 07:53:25;;;;;;;10.50;5.85;;;-0.80;99.90;;;;;;5079054;28;20070;-57
2023/01/18 07:55:52;;;;;;;11.27;5.05;;;-0.80;99.90;;;;;;5092443;28;20462;-57
2023/01/18 07:58:19;;;;;;;10.15;5.10;;;-1.10;99.90;;;;;;5099408;28;20067;-58
2023/01/18 08:00:44;;;;;;;13.45;5.60;;;-1.10;99.90;;;;;;5080307;28;20047;-57
2023/01/18 08:03:15;;;;;;;11.02;5.55;;;-0.90;99.90;;;;;;5096724;28;20125;-58
2023/01/18 08:05:42;;;;;;;10.75;4.90;;;-0.80;99.90;;;;;;5099835;28;20036;-57
2023/01/18 08:08:15;;;;;;;9.43;4.55;;;-0.90;99.90;;;;;;5096601;28;20048;-57
2023/01/18 08:10:42;;;;;;;11.50;5.43;;;-0.80;99.90;;;;;;5099404;28;20044;-57
2023/01/18 08:13:09;;;;;;;10.82;4.63;;;-0.90;99.90;;;;;;5096264;28;20043;-56
2023/01/18 08:15:36;;;;;;;8.13;4.50;;;-0.90;99.90;;;;;;5080434;28;20040;-58
2023/01/18 08:18:03;;;;;;;10.50;5.25;;;-0.90;99.90;;;;;;5080646;28;20408;-58
2023/01/18 08:20:29;;;;;;;15.48;6.05;;;-0.80;99.90;;;;;;5096901;28;20051;-58
2023/01/18 08:22:56;;;;;;;10.90;5.43;;;-0.90;99.90;;;;;;5080994;28;20044;-57
2023/01/18 08:25:23;;;;;;;9.70;4.80;;;-0.80;99.90;;;;;;5095866;28;20055;-57
2023/01/18 08:27:49;;;;;;;9.63;4.22;;;-0.90;99.90;;;;;;5099031;28;20044;-57
2023/01/18 08:30:15;;;;;;;11.25;4.95;;;-0.70;99.90;;;;;;5096370;28;20039;-57
2023/01/18 08:32:40;;;;;;;9.15;4.85;;;-0.90;99.90;;;;;;5100968;28;20491;-56
2023/01/18 08:35:07;;;;;;;11.35;5.45;;;-0.60;99.90;;;;;;5083320;28;20071;-57
2023/01/18 08:37:32;;;;;;;10.60;4.88;;;-0.80;99.90;;;;;;5100127;28;20580;-57
2023/01/18 08:39:58;;;;;;;10.80;4.57;;;-0.60;99.90;;;;;;5102780;28;20040;-56
2023/01/18 08:42:24;;;;;;;10.27;4.72;;;-0.60;99.90;;;;;;5099157;28;20040;-57
2023/01/18 08:44:49;;;;;;;11.38;5.25;;;-0.50;99.90;;;;;;5102527;28;20044;-57
2023/01/18 08:47:16;;;;;;;12.80;5.30;;;-0.70;99.90;;;;;;5080480;28;20071;-56
2023/01/18 08:49:41;;;;;;;10.38;4.10;;;-0.40;99.90;;;;;;5093162;28;20048;-57
2023/01/18 08:52:09;;;;;;;9.50;4.10;;;-0.40;99.90;;;;;;5086281;28;20041;-57
2023/01/18 08:54:35;;;;;;;11.48;5.28;;;-0.30;99.90;;;;;;5071671;28;20048;-57
2023/01/18 08:57:01;;;;;;;10.77;4.35;;;-0.30;99.90;;;;;;5072738;28;20036;-57
2023/01/18 08:59:27;;;;;;;10.40;4.93;;;-0.30;99.90;;;;;;5096933;28;20040;-57
2023/01/18 09:01:52;;;;;;;9.32;4.78;;;-0.20;99.90;;;;;;5097728;28;20043;-57
2023/01/18 09:04:18;;;;;;;11.32;5.20;;;-0.20;99.90;;;;;;5088610;28;20068;-57
2023/01/18 09:06:45;;;;;;;10.10;4.38;;;-0.30;99.90;;;;;;5090334;28;20040;-57
2023/01/18 09:09:11;;;;;;;12.43;5.07;;;-0.10;99.90;;;;;;5073046;28;20066;-57
2023/01/18 09:11:37;;;;;;;15.15;4.90;;;-0.20;99.90;;;;;;5087574;28;20048;-57
2023/01/18 09:14:02;;;;;;;8.65;4.38;;;-0.20;99.90;;;;;;5085937;28;20616;-57
2023/01/18 09:16:29;;;;;;;9.95;4.88;;;0.10;99.90;;;;;;5085395;28;20048;-57
2023/01/18 09:18:56;;;;;;;9.98;4.90;;;0.00;99.90;;;;;;5086862;28;20044;-57
2023/01/18 09:21:22;;;;;;;10.75;4.40;;;0.60;99.90;;;;;;5083757;28;20097;-57
2023/01/18 09:23:48;;;;;;;9.15;4.28;;;0.10;99.90;;;;;;5087848;28;20062;-55
2023/01/18 09:26:16;;;;;;;11.55;4.57;;;0.00;99.90;;;;;;5086176;28;20071;-56
2023/01/18 09:28:46;;;;;;;8.32;3.92;;;0.30;99.90;;;;;;5066402;28;20577;-57
2023/01/18 09:31:11;;;;;;;8.40;4.07;;;0.30;99.90;;;;;;5087320;28;20122;-57
2023/01/18 09:33:38;;;;;;;9.85;4.80;;;0.30;99.90;;;;;;5084511;28;20083;-57
2023/01/18 09:36:09;;;;;;;11.18;4.13;;;0.40;99.90;;;;;;5085334;28;20057;-57
2023/01/18 09:38:36;;;;;;;10.27;4.43;;;0.20;99.90;;;;;;5084158;28;20068;-57
2023/01/18 09:41:05;;;;;;;10.52;4.05;;;0.40;99.90;;;;;;5087270;28;20071;-57
2023/01/18 09:43:41;;;;;;;10.00;4.22;;;0.40;99.90;;;;;;5085286;28;20036;-57
2023/01/18 09:46:20;;;;;;;8.65;3.67;;;0.60;99.90;;;;;;5068302;28;20090;-58
2023/01/18 09:48:53;;;;;;;8.52;3.80;;;0.70;99.90;;;;;;5087385;28;20051;-57
2023/01/18 09:51:22;;;;;;;9.85;4.18;;;0.70;99.90;;;;;;5084993;28;20036;-57
2023/01/18 09:53:54;;;;;;;9.10;4.28;;;0.70;99.90;;;;;;5084106;28;20440;-56
2023/01/18 09:56:26;;;;;;;8.73;4.88;;;0.80;99.90;;;;;;5086559;28;20044;-57
2023/01/18 09:59:17;;;;;;;9.15;4.30;;;0.90;99.90;;;;;;5085091;28;20040;-58
2023/01/18 10:01:44;;;;;;;10.73;4.10;;;0.80;99.90;;;;;;5084496;28;20048;-58
2023/01/18 10:04:35;;;;;;;8.38;4.05;;;0.90;99.90;;;;;;5084327;28;20467;-58
2023/01/18 10:07:12;;;;;;;8.20;3.55;;;0.80;99.90;;;;;;5086326;28;20076;-57
2023/01/18 10:09:41;;;;;;;9.32;4.43;;;1.00;99.90;;;;;;5085562;28;20063;-56
2023/01/18 10:12:28;;;;;;;11.00;4.20;;;1.10;99.90;;;;;;5081175;28;20248;-57
2023/01/18 10:15:06;;;;;;;10.05;4.22;;;1.00;99.90;;;;;;5079275;28;20044;-58
2023/01/18 10:17:42;;;;;;;14.25;5.15;;;1.20;99.90;;;;;;5077416;28;20068;-58
2023/01/18 10:20:15;;;;;;;10.35;4.20;;;1.20;99.90;;;;;;5078489;28;20106;-58
2023/01/18 10:22:57;;;;;;;12.63;4.90;;;1.20;99.90;;;;;;5079971;28;20083;-57
2023/01/18 10:25:45;;;;;;;9.45;4.95;;;1.30;99.90;;;;;;5059059;28;20045;-56
2023/01/18 10:28:24;;;;;;;9.13;3.58;;;1.40;99.90;;;;;;5080030;28;20042;-57
2023/01/18 10:31:04;;;;;;;9.40;4.35;;;1.40;99.90;;;;;;5079680;28;20045;-57
2023/01/18 10:33:39;;;;;;;11.48;4.82;;;1.40;99.90;;;;;;5076816;28;20055;-57
2023/01/18 10:36:37;;;;;;;9.35;4.05;;;1.60;99.90;;;;;;5080219;28;20045;-58
2023/01/18 10:39:14;;;;;;;8.38;3.55;;;1.70;99.90;;;;;;5079028;28;20087;-58
2023/01/18 10:41:42;;;;;;;7.57;4.00;;;1.80;99.90;;;;;;5043697;28;20131;-58
2023/01/18 10:44:08;;;;;;;6.55;3.53;;;1.70;99.90;;;;;;5062408;28;20400;-58
2023/01/18 10:46:34;;;;;;;7.82;4.07;;;1.80;99.90;;;;;;5077330;28;20051;-56
2023/01/18 10:49:01;;;;;;;9.85;4.05;;;1.90;99.90;;;;;;5061898;28;20044;-57
2023/01/18 10:51:35;;;;;;;10.43;4.43;;;1.80;99.90;;;;;;5077266;28;20044;-56
2023/01/18 10:54:16;;;;;;;8.80;4.60;;;2.00;99.90;;;;;;5066897;28;20068;-54
2023/01/18 10:56:43;;;;;;;13.13;4.35;;;2.10;99.90;;;;;;5100024;28;20059;-56
2023/01/18 10:59:28;;;;;;;8.88;4.25;;;2.20;99.90;;;;;;5097169;28;20059;-57
2023/01/18 11:01:56;;;;;;;8.57;3.97;;;2.10;99.90;;;;;;5099748;28;20044;-57
2023/01/18 11:04:28;;;;;;;10.23;4.22;;;2.20;99.90;;;;;;5097755;28;20044;-58
2023/01/18 11:07:01;;;;;;;;;;;2.30;99.90;;;;;;5103055;28;20051;-57
2023/01/18 11:09:50;;;;;;;11.52;4.50;;;2.20;99.90;;;;;;5103708;28;19927;-57
2023/01/18 11:12:50;;;;;;;9.43;4.43;;;2.30;99.90;;;;;;5082546;28;20036;-57
2023/01/18 11:15:17;;;;;;;10.82;3.92;;;2.50;99.90;;;;;;5103907;28;20036;-58
2023/01/18 11:17:45;;;;;;;12.02;3.90;;;2.40;99.90;;;;;;5102852;28;20067;-56
2023/01/18 11:20:32;;;;;;;8.60;3.97;;;2.50;99.90;;;;;;5083882;28;20082;-57
2023/01/18 11:23:14;;;;;;;10.05;4.90;;;2.50;99.90;;;;;;5103721;28;20134;-57
2023/01/18 11:26:04;;;;;;;7.03;3.35;;;2.50;99.90;;;;;;5082811;28;20593;-58
2023/01/18 11:28:52;;;;;;;9.57;4.07;;;2.50;99.90;;;;;;5102594;28;20066;-58
2023/01/18 11:31:20;;;;;;;8.57;4.10;;;2.60;99.90;;;;;;5103309;28;20051;-58
2023/01/18 11:33:58;;;;;;;11.73;5.20;;;2.70;99.90;;;;;;5100313;28;20563;-57
2023/01/18 11:36:35;;;;;;;9.73;4.13;;;2.70;99.90;;;;;;5103406;28;20040;-58
2023/01/18 11:39:20;;;;;;;8.73;3.25;;;2.70;99.90;;;;;;5101984;28;20079;-57
2023/01/18 11:41:47;;;;;;;10.95;4.63;;;2.90;99.90;;;;;;5082188;28;20051;-58
2023/01/18 11:44:31;;;;;;;8.90;4.20;;;2.80;99.90;;;;;;5103205;28;20492;-58
2023/01/18 11:47:02;;;;;;;8.88;3.70;;;2.80;99.90;;;;;;5100402;28;20051;-57
2023/01/18 11:49:37;;;;;;;10.90;4.85;;;2.80;99.90;;;;;;5103300;28;20051;-58
2023/01/18 11:52:13;;;;;;;8.98;5.40;;;2.90;99.90;;;;;;5102491;28;20044;-57
2023/01/18 11:54:52;;;;;;;10.20;3.60;;;3.10;99.90;;;;;;5089119;28;20683;-57
2023/01/18 11:57:18;;;;;;;9.70;4.07;;;3.10;99.90;;;;;;5083010;28;20036;-57
2023/01/18 11:59:45;;;;;;;8.65;4.20;;;3.00;99.90;;;;;;5092945;28;20044;-58
2023/01/18 12:02:36;;;;;;;7.75;3.92;;;3.10;99.90;;;;;;5103117;28;20181;-58
2023/01/18 12:05:40;;;;;;;8.35;4.20;;;3.20;99.90;;;;;;5102477;28;20056;-57
2023/01/18 12:08:27;;;;;;;10.77;5.00;;;3.30;99.90;;;;;;5064292;28;20073;-58
2023/01/18 12:11:18;;;;;;;10.75;4.75;;;3.20;99.90;;;;;;5083942;28;20052;-57
2023/01/18 12:14:04;;;;;;;7.53;3.85;;;3.30;99.90;;;;;;5082362;28;20098;-57
2023/01/18 12:16:49;;;;;;;9.38;4.47;;;3.20;99.90;;;;;;5097756;28;20519;-57
2023/01/18 12:19:24;;;;;;;9.57;4.13;;;3.30;99.90;;;;;;5084281;28;20071;-57
2023/01/18 12:22:34;;;;;;;8.77;3.60;;;3.30;99.90;;;;;;5099990;28;20059;-57
2023/01/18 12:25:45;;;;;;;7.72;3.78;;;3.30;99.90;;;;;;5098511;28;20048;-57
2023/01/18 12:28:34;;;;;;;8.57;3.47;;;3.40;99.90;;;;;;5091794;28;20040;-58
2023/01/18 12:31:11;;;;;;;7.38;3.50;;;3.40;99.90;;;;;;5093015;28;20072;-57
2023/01/18 12:34:09;;;;;;;9.48;4.30;;;3.50;99.90;;;;;;5089636;28;20121;-58
2023/01/18 12:37:03;;;;;;;9.52;4.28;;;3.50;99.90;;;;;;5102434;28;20411;-58
2023/01/18 12:39:51;;;;;;;13.77;4.03;;;3.60;99.90;;;;;;5083931;28;20488;-58
2023/01/18 12:42:22;;;;;;;9.07;3.38;;;3.60;99.90;;;;;;5098770;28;20044;-58
2023/01/18 12:45:07;;;;;;;11.05;3.67;;;3.70;99.90;;;;;;5102546;28;20067;-58
2023/01/18 12:47:39;;;;;;;8.50;3.65;;;3.70;99.90;;;;;;5100832;28;20088;-57
2023/01/18 12:50:14;;;;;;;8.00;3.75;;;3.60;99.90;;;;;;5100653;28;20044;-58
2023/01/18 12:52:48;;;;;;;7.90;3.67;;;3.70;99.90;;;;;;5083742;28;20071;-58
2023/01/18 12:55:21;;;;;;;8.60;3.75;;;3.50;99.90;;;;;;5099274;28;20464;-58
2023/01/18 12:57:51;;;;;;;8.52;3.70;;;3.40;99.90;;;;;;5101829;28;20569;-58
2023/01/18 13:00:25;;;;;;;9.88;3.55;;;3.30;99.90;;;;;;5100251;28;20120;-56
2023/01/18 13:02:55;;;;;;;9.23;3.88;;;3.40;99.90;;;;;;5100645;28;20082;-58
2023/01/18 13:05:21;;;;;;;7.47;3.38;;;3.40;99.90;;;;;;5101937;28;20043;-57
2023/01/18 13:08:03;;;;;;;8.00;3.15;;;3.20;99.90;;;;;;5098946;28;20325;-58
2023/01/18 13:10:29;;;;;;;7.20;3.40;;;3.30;99.90;;;;;;5101927;28;20059;-58
2023/01/18 13:12:56;;;;;;;9.27;3.35;;;3.30;99.90;;;;;;5081063;28;20064;-58
2023/01/18 13:15:37;;;;;;;8.07;3.45;;;3.30;99.90;;;;;;5101452;28;20044;-58
2023/01/18 13:18:22;;;;;;;7.40;3.30;;;3.20;99.90;;;;;;5101539;28;20044;-57
2023/01/18 13:21:24;;;;;;;7.60;3.17;;;3.20;99.90;;;;;;5098803;28;20036;-58
2023/01/18 13:24:08;;;;;;;8.83;3.27;;;3.20;99.90;;;;;;5095108;28;20052;-58
2023/01/18 13:26:35;;;;;;;10.30;3.20;;;3.20;99.90;;;;;;5091162;28;20315;-58
2023/01/18 13:29:21;;;;;;;7.88;3.40;;;3.30;99.90;;;;;;5052061;28;20058;-58
2023/01/18 13:31:47;;;;;;;7.15;3.15;;;3.20;99.90;;;;;;5057395;28;20071;-58
2023/01/18 13:34:27;;;;;;;6.75;2.65;;;3.20;99.90;;;;;;5087830;28;20045;-58
2023/01/18 13:36:56;;;;;;;9.15;3.58;;;3.20;99.90;;;;;;5072124;28;20454;-58
2023/01/18 13:39:23;;;;;;;6.65;2.80;;;3.10;99.90;;;;;;5074102;28;20060;-58